Time;durP1;ratioP1;P1;durP2;ratioP2;P2;SDS_P1;SDS_P2;PMS_P1;PMS_P2;Temp;Humidity;BMP_temperature;BMP_pressure;BME280_temperature;BME280_humidity;BME280_pressure;Samples;Min_cycle;Max_cycle;Signal;HPM_P1;HPM_P2
2024/02/23 00:00:38;;;;;;;3.60;1.00;;;10.30;1.00;;;;;;5097092;27;21034;-75
2024/02/23 00:03:07;;;;;;;1.37;0.80;;;10.20;1.00;;;;;;5088893;28;20442;-75
2024/02/23 00:05:34;;;;;;;0.93;0.83;;;10.20;1.00;;;;;;5093063;27;20501;-75
2024/02/23 00:08:01;;;;;;;1.27;0.80;;;10.20;1.00;;;;;;5088258;28;20523;-75
2024/02/23 00:10:28;;;;;;;1.27;1.00;;;10.20;1.00;;;;;;5082979;27;22373;-76
2024/02/23 00:12:56;;;;;;;1.47;1.20;;;10.20;1.00;;;;;;5085815;28;20547;-76
2024/02/23 00:15:25;;;;;;;1.00;0.80;;;10.20;1.00;;;;;;5088542;28;20582;-77
2024/02/23 00:17:52;;;;;;;1.53;1.10;;;10.20;1.00;;;;;;5084629;28;21113;-76
2024/02/23 00:20:19;;;;;;;2.20;1.10;;;10.20;1.00;;;;;;5096106;27;20477;-76
2024/02/23 00:22:46;;;;;;;1.30;1.10;;;10.20;1.00;;;;;;5089473;28;20477;-76
2024/02/23 00:25:14;;;;;;;0.90;0.80;;;10.20;1.00;;;;;;5092248;27;20481;-76
2024/02/23 00:27:41;;;;;;;1.20;1.00;;;10.20;1.00;;;;;;5090396;28;21077;-76
2024/02/23 00:30:11;;;;;;;2.03;1.10;;;10.30;1.00;;;;;;5094021;27;21004;-76
2024/02/23 00:32:39;;;;;;;1.57;1.00;;;10.30;1.00;;;;;;5090487;28;20546;-76
2024/02/23 00:35:07;;;;;;;1.10;0.80;;;10.30;1.00;;;;;;5089703;28;20459;-76
2024/02/23 00:37:35;;;;;;;1.10;0.90;;;10.30;1.00;;;;;;5087064;28;20557;-76
2024/02/23 00:40:03;;;;;;;0.93;0.83;;;10.40;1.00;;;;;;5086290;28;20474;-76
2024/02/23 00:42:31;;;;;;;1.10;0.80;;;10.40;1.00;;;;;;5096648;27;20454;-75
2024/02/23 00:44:58;;;;;;;1.10;0.80;;;10.30;1.00;;;;;;5089094;28;20453;-75
2024/02/23 00:47:25;;;;;;;1.50;1.20;;;10.30;1.00;;;;;;5089272;28;20451;-76
2024/02/23 00:49:53;;;;;;;1.20;1.10;;;10.30;1.00;;;;;;5097193;28;20831;-75
2024/02/23 00:52:21;;;;;;;1.20;1.00;;;10.30;1.00;;;;;;5106049;27;20983;-76
2024/02/23 00:54:48;;;;;;;1.03;0.93;;;10.30;1.00;;;;;;5108047;27;20456;-77
2024/02/23 00:57:15;;;;;;;1.70;1.10;;;10.20;1.00;;;;;;5100592;27;20467;-74
2024/02/23 00:59:42;;;;;;;1.77;1.30;;;10.20;1.00;;;;;;5084796;28;20487;-76
2024/02/23 01:02:09;;;;;;;24.80;16.93;;;10.20;1.00;;;;;;5088180;28;21242;-77
2024/02/23 01:04:36;;;;;;;1.50;1.23;;;10.20;1.00;;;;;;5082467;28;20545;-76
2024/02/23 01:07:06;;;;;;;1.50;1.40;;;10.20;1.00;;;;;;5092603;27;20450;-76
2024/02/23 01:09:35;;;;;;;2.17;1.73;;;10.20;1.00;;;;;;5089666;27;20474;-77
2024/02/23 01:12:02;;;;;;;1.90;1.70;;;10.20;1.00;;;;;;5088417;28;20879;-75
2024/02/23 01:14:29;;;;;;;1.70;1.17;;;10.20;1.00;;;;;;5088342;28;21065;-75
2024/02/23 01:16:57;;;;;;;1.63;1.40;;;10.30;1.00;;;;;;5095649;27;20877;-73
2024/02/23 01:19:24;;;;;;;1.60;1.23;;;10.30;1.00;;;;;;5087425;28;20521;-73
2024/02/23 01:21:59;;;;;;;1.40;1.30;;;10.30;1.00;;;;;;5088465;27;23028;-74
2024/02/23 01:24:29;;;;;;;2.53;2.07;;;10.30;1.00;;;;;;5079825;28;20480;-73
2024/02/23 01:26:57;;;;;;;1.70;1.30;;;10.30;1.00;;;;;;5100234;27;20463;-73
2024/02/23 01:29:27;;;;;;;1.57;1.10;;;10.40;1.00;;;;;;5098604;27;20478;-72
2024/02/23 01:31:54;;;;;;;1.40;1.30;;;10.40;1.00;;;;;;5084109;28;20439;-75
2024/02/23 01:34:22;;;;;;;2.00;1.70;;;10.40;1.00;;;;;;5084111;28;20458;-73
2024/02/23 01:36:49;;;;;;;2.00;1.00;;;10.50;1.00;;;;;;5089626;27;20458;-73
2024/02/23 01:39:16;;;;;;;3.00;1.67;;;10.60;1.00;;;;;;5092177;27;20855;-73
2024/02/23 01:41:45;;;;;;;1.53;1.20;;;10.70;1.00;;;;;;5085993;28;20585;-75
2024/02/23 01:44:12;;;;;;;1.63;1.27;;;10.80;1.00;;;;;;5095551;27;20465;-73
2024/02/23 01:46:39;;;;;;;1.30;1.20;;;11.00;1.00;;;;;;5100375;27;20548;-73
2024/02/23 01:49:08;;;;;;;1.90;1.43;;;11.10;1.00;;;;;;5107532;27;20513;-72
2024/02/23 01:51:36;;;;;;;1.23;1.13;;;11.20;1.00;;;;;;5104876;27;20971;-73
2024/02/23 01:54:04;;;;;;;1.40;1.30;;;11.30;1.00;;;;;;5102224;27;20469;-72
2024/02/23 01:56:33;;;;;;;2.00;1.27;;;11.40;1.00;;;;;;5084370;28;20593;-73
2024/02/23 01:59:04;;;;;;;1.87;1.17;;;11.40;1.00;;;;;;5090197;28;20573;-72
2024/02/23 02:01:32;;;;;;;1.17;1.03;;;11.50;1.00;;;;;;5086169;28;20467;-72
2024/02/23 02:03:59;;;;;;;1.80;1.07;;;11.60;1.00;;;;;;5089583;27;20482;-74
2024/02/23 02:06:26;;;;;;;2.17;0.90;;;11.60;1.00;;;;;;5084676;28;20460;-74
2024/02/23 02:08:53;;;;;;;1.17;1.07;;;11.60;1.00;;;;;;5092257;27;20523;-74
2024/02/23 02:11:21;;;;;;;1.20;1.10;;;11.70;1.00;;;;;;5094662;27;20473;-73
2024/02/23 02:13:47;;;;;;;1.30;1.00;;;11.60;1.00;;;;;;5083999;28;20830;-72
2024/02/23 02:16:16;;;;;;;1.20;1.00;;;11.60;1.00;;;;;;5086628;28;20902;-75
2024/02/23 02:18:44;;;;;;;1.40;1.30;;;11.70;1.00;;;;;;5088055;27;20569;-73
2024/02/23 02:21:11;;;;;;;1.20;0.87;;;11.60;1.00;;;;;;5093190;27;20475;-73
2024/02/23 02:23:38;;;;;;;1.10;0.93;;;11.60;1.00;;;;;;5094469;27;20541;-72
2024/02/23 02:26:07;;;;;;;1.10;0.90;;;11.60;1.00;;;;;;5092817;27;20469;-72
2024/02/23 02:28:37;;;;;;;2.43;1.43;;;11.50;1.00;;;;;;5105687;27;20520;-74
2024/02/23 02:31:04;;;;;;;2.30;1.40;;;11.50;1.00;;;;;;5107018;27;20457;-75
2024/02/23 02:33:33;;;;;;;2.87;2.00;;;11.50;1.00;;;;;;5106682;27;20468;-75
2024/02/23 02:36:00;;;;;;;2.00;1.17;;;11.50;1.00;;;;;;5108746;27;20543;-74
2024/02/23 02:38:27;;;;;;;0.90;0.60;;;11.40;1.00;;;;;;5101357;27;20490;-76
2024/02/23 02:40:53;;;;;;;1.37;0.73;;;11.30;1.00;;;;;;5108500;27;21243;-74
2024/02/23 02:43:21;;;;;;;1.97;0.73;;;11.30;1.00;;;;;;5107472;27;20531;-74
2024/02/23 02:45:48;;;;;;;2.27;0.70;;;11.20;1.00;;;;;;5106699;27;20446;-76
2024/02/23 02:48:14;;;;;;;1.10;0.40;;;11.10;1.00;;;;;;5100849;27;20557;-75
2024/02/23 02:50:43;;;;;;;0.70;0.50;;;11.10;1.00;;;;;;5085688;28;20471;-74
2024/02/23 02:53:11;;;;;;;1.57;0.50;;;11.00;1.00;;;;;;5078713;28;21351;-75
2024/02/23 02:55:38;;;;;;;1.50;0.80;;;11.00;1.00;;;;;;5083258;28;20480;-74
2024/02/23 02:58:05;;;;;;;0.90;0.77;;;11.00;1.00;;;;;;5083090;27;21045;-75
2024/02/23 03:00:32;;;;;;;1.00;0.60;;;10.90;1.00;;;;;;5094726;27;20446;-75
2024/02/23 03:02:58;;;;;;;0.70;0.50;;;10.90;1.00;;;;;;5087941;28;20463;-74
2024/02/23 03:05:25;;;;;;;1.90;0.50;;;10.90;1.00;;;;;;5086346;28;21282;-75
2024/02/23 03:07:53;;;;;;;1.70;0.50;;;10.80;1.00;;;;;;5104231;27;20470;-76
2024/02/23 03:10:20;;;;;;;0.70;0.50;;;10.80;1.00;;;;;;5101707;27;20533;-74
2024/02/23 03:12:47;;;;;;;0.50;0.37;;;10.70;1.00;;;;;;5093546;27;20833;-74
2024/02/23 03:15:14;;;;;;;0.80;0.43;;;10.60;1.00;;;;;;5104011;27;22114;-74
2024/02/23 03:17:41;;;;;;;0.87;0.60;;;10.60;1.00;;;;;;5088608;27;20473;-73
2024/02/23 03:20:10;;;;;;;0.83;0.53;;;10.60;1.00;;;;;;5103912;27;20531;-75
2024/02/23 03:22:37;;;;;;;0.97;0.50;;;10.60;1.00;;;;;;5104700;27;20463;-76
2024/02/23 03:25:09;;;;;;;1.13;0.40;;;10.50;1.00;;;;;;5107050;27;20937;-75
2024/02/23 03:27:37;;;;;;;2.30;0.63;;;10.40;1.00;;;;;;5097965;27;22225;-74
2024/02/23 03:30:05;;;;;;;2.10;0.40;;;10.40;1.00;;;;;;5102912;27;20888;-77
2024/02/23 03:32:36;;;;;;;1.57;0.43;;;10.40;1.00;;;;;;5096017;27;21087;-75
2024/02/23 03:35:04;;;;;;;2.27;0.90;;;10.40;1.00;;;;;;5099305;27;20497;-76
2024/02/23 03:37:31;;;;;;;2.53;0.70;;;10.40;1.00;;;;;;5082457;27;20466;-75
2024/02/23 03:39:59;;;;;;;1.23;0.47;;;10.40;1.00;;;;;;5103601;27;20482;-75
2024/02/23 03:42:27;;;;;;;0.87;0.70;;;10.40;1.00;;;;;;5087147;28;20521;-76
2024/02/23 03:44:54;;;;;;;1.50;0.60;;;10.30;1.00;;;;;;5083358;28;20554;-75
2024/02/23 03:47:21;;;;;;;1.00;0.60;;;10.30;1.00;;;;;;5082893;28;20522;-75
2024/02/23 03:49:48;;;;;;;2.17;0.90;;;10.30;1.00;;;;;;5096011;27;20460;-73
2024/02/23 03:52:15;;;;;;;1.23;0.50;;;10.20;1.00;;;;;;5107629;27;20457;-73
2024/02/23 03:54:42;;;;;;;2.87;0.60;;;10.20;1.00;;;;;;5093122;27;21005;-74
2024/02/23 03:57:09;;;;;;;1.53;0.80;;;10.10;1.00;;;;;;5092478;27;20464;-73
2024/02/23 03:59:38;;;;;;;0.80;0.70;;;10.10;1.00;;;;;;5087351;28;20538;-74
2024/02/23 04:02:05;;;;;;;1.53;0.70;;;10.10;1.00;;;;;;5084572;27;21339;-75
2024/02/23 04:04:32;;;;;;;0.63;0.50;;;10.20;1.00;;;;;;5085242;28;20497;-75
2024/02/23 04:06:59;;;;;;;0.60;0.40;;;10.20;1.00;;;;;;5084360;28;20495;-72
2024/02/23 04:09:26;;;;;;;0.80;0.60;;;10.20;1.00;;;;;;5088973;28;20874;-74
2024/02/23 04:11:53;;;;;;;1.53;0.67;;;10.20;1.00;;;;;;5092910;27;20954;-74
2024/02/23 04:14:20;;;;;;;2.47;0.43;;;10.20;1.00;;;;;;5091929;27;20458;-74
2024/02/23 04:16:48;;;;;;;2.50;0.70;;;10.20;1.00;;;;;;5080397;28;21286;-74
2024/02/23 04:19:15;;;;;;;0.90;0.70;;;10.10;1.00;;;;;;5083680;28;20541;-76
2024/02/23 04:21:42;;;;;;;0.93;0.60;;;10.10;1.00;;;;;;5084599;28;20541;-74
2024/02/23 04:24:09;;;;;;;2.20;0.90;;;10.00;1.00;;;;;;5091302;28;20494;-74
2024/02/23 04:26:36;;;;;;;1.43;0.70;;;9.90;1.00;;;;;;5085570;28;20581;-75
2024/02/23 04:29:03;;;;;;;2.47;0.57;;;10.00;1.00;;;;;;5094491;27;20511;-75
2024/02/23 04:31:29;;;;;;;1.80;0.87;;;9.90;1.00;;;;;;5087565;28;21370;-74
2024/02/23 04:33:58;;;;;;;0.67;0.50;;;9.90;1.00;;;;;;5089860;27;20552;-75
2024/02/23 04:36:25;;;;;;;2.10;0.90;;;9.90;1.00;;;;;;5088870;27;21240;-74
2024/02/23 04:38:52;;;;;;;2.00;0.83;;;9.90;1.00;;;;;;5083307;28;20453;-75
2024/02/23 04:41:21;;;;;;;1.47;1.00;;;9.80;1.00;;;;;;5097408;27;20550;-74
2024/02/23 04:43:50;;;;;;;1.30;0.60;;;9.80;1.00;;;;;;5090418;28;20464;-75
2024/02/23 04:46:17;;;;;;;1.10;1.00;;;9.70;1.00;;;;;;5090281;27;21014;-72
2024/02/23 04:48:45;;;;;;;1.20;0.63;;;9.70;1.00;;;;;;5086398;27;20458;-75
2024/02/23 04:51:13;;;;;;;2.50;0.50;;;9.70;1.00;;;;;;5100522;27;21007;-74
2024/02/23 04:53:40;;;;;;;1.17;0.50;;;9.70;1.00;;;;;;5092529;27;20463;-75
2024/02/23 04:56:08;;;;;;;1.47;0.70;;;9.80;1.00;;;;;;5088657;27;20480;-74
2024/02/23 04:58:36;;;;;;;2.23;0.57;;;9.80;1.00;;;;;;5104535;27;21303;-76
2024/02/23 05:01:04;;;;;;;1.17;0.70;;;9.80;1.00;;;;;;5099491;27;20462;-74
2024/02/23 05:03:31;;;;;;;1.43;0.60;;;9.70;1.00;;;;;;5080736;28;20486;-75
2024/02/23 05:05:58;;;;;;;1.30;0.70;;;9.70;1.00;;;;;;5086740;27;20562;-75
2024/02/23 05:08:27;;;;;;;1.83;0.67;;;9.70;1.00;;;;;;5089513;27;20468;-75
2024/02/23 05:10:54;;;;;;;2.40;0.50;;;9.60;1.00;;;;;;5084972;28;22175;-74
2024/02/23 05:13:22;;;;;;;0.60;0.40;;;9.60;1.00;;;;;;5080494;28;20585;-75
2024/02/23 05:15:50;;;;;;;3.57;0.70;;;9.70;1.00;;;;;;5092810;27;20462;-79
2024/02/23 05:18:18;;;;;;;1.57;0.70;;;9.70;1.00;;;;;;5090234;28;20495;-76
2024/02/23 05:20:45;;;;;;;1.40;0.53;;;9.70;1.00;;;;;;5084712;28;20458;-76
2024/02/23 05:23:11;;;;;;;1.27;0.57;;;9.70;1.00;;;;;;5090697;28;20458;-76
2024/02/23 05:25:40;;;;;;;1.40;0.67;;;9.80;1.00;;;;;;5100019;27;20555;-75
2024/02/23 05:28:07;;;;;;;1.80;0.80;;;9.80;1.00;;;;;;5088632;28;20512;-76
2024/02/23 05:30:37;;;;;;;8.23;4.23;;;9.70;1.00;;;;;;5085874;27;20659;-75
2024/02/23 05:33:04;;;;;;;1.20;0.50;;;9.70;1.00;;;;;;5095047;27;20958;-77
2024/02/23 05:35:31;;;;;;;2.47;0.97;;;9.70;1.00;;;;;;5085215;28;20528;-76
2024/02/23 05:37:58;;;;;;;1.33;0.60;;;9.60;1.00;;;;;;5086360;28;20601;-75
2024/02/23 05:40:25;;;;;;;1.97;0.50;;;9.50;1.00;;;;;;5088344;28;20929;-75
2024/02/23 05:42:55;;;;;;;1.80;0.23;;;9.30;1.00;;;;;;5102620;27;20492;-75
2024/02/23 05:45:22;;;;;;;1.27;0.40;;;9.20;1.00;;;;;;5098058;27;20509;-76
2024/02/23 05:47:49;;;;;;;2.00;0.53;;;9.10;1.00;;;;;;5087970;28;20531;-76
2024/02/23 05:50:16;;;;;;;1.03;0.50;;;9.00;1.00;;;;;;5087243;28;21063;-75
2024/02/23 05:52:43;;;;;;;1.70;0.47;;;8.90;1.00;;;;;;5097970;27;20489;-75
2024/02/23 05:55:10;;;;;;;2.80;1.37;;;8.80;1.00;;;;;;5086531;28;21159;-76
2024/02/23 05:57:37;;;;;;;1.10;0.40;;;8.70;1.00;;;;;;5089702;28;20446;-71
2024/02/23 06:00:08;;;;;;;0.73;0.50;;;8.60;1.00;;;;;;5094689;27;20549;-73
2024/02/23 06:02:35;;;;;;;0.50;0.40;;;8.60;1.00;;;;;;5084640;28;20537;-73
2024/02/23 06:05:03;;;;;;;1.17;0.50;;;8.60;1.00;;;;;;5084099;28;21322;-73
2024/02/23 06:07:30;;;;;;;0.87;0.63;;;8.50;1.00;;;;;;5094094;27;20515;-74
2024/02/23 06:09:57;;;;;;;2.17;1.23;;;8.50;1.00;;;;;;5086454;28;20546;-72
2024/02/23 06:12:24;;;;;;;2.07;0.77;;;8.50;1.00;;;;;;5084545;27;20532;-73
2024/02/23 06:14:52;;;;;;;2.07;1.30;;;8.50;1.00;;;;;;5089419;27;20458;-75
2024/02/23 06:17:20;;;;;;;2.63;0.80;;;8.50;1.00;;;;;;5090798;27;21121;-75
2024/02/23 06:19:47;;;;;;;1.00;0.57;;;8.40;1.00;;;;;;5088142;28;20455;-74
2024/02/23 06:22:16;;;;;;;1.07;0.70;;;8.40;1.00;;;;;;5085735;28;21215;-73
2024/02/23 06:24:43;;;;;;;0.70;0.70;;;8.50;1.00;;;;;;5086220;28;22387;-72
2024/02/23 06:27:10;;;;;;;0.93;0.63;;;8.50;1.00;;;;;;5086884;28;20443;-72
2024/02/23 06:29:37;;;;;;;2.80;0.73;;;8.40;1.00;;;;;;5085478;27;20455;-73
2024/02/23 06:32:05;;;;;;;1.63;0.73;;;8.40;1.00;;;;;;5092555;27;21184;-72
2024/02/23 06:34:33;;;;;;;1.77;0.73;;;8.40;1.00;;;;;;5095261;27;20470;-73
2024/02/23 06:37:00;;;;;;;2.03;0.90;;;8.40;1.00;;;;;;5088903;27;20986;-72
2024/02/23 06:39:28;;;;;;;0.90;0.70;;;8.40;1.00;;;;;;5081898;28;20682;-74
2024/02/23 06:41:57;;;;;;;1.20;1.00;;;8.40;1.00;;;;;;5092099;28;20451;-74
2024/02/23 06:44:26;;;;;;;1.73;1.27;;;8.40;1.00;;;;;;5105812;27;20482;-74
2024/02/23 06:46:53;;;;;;;2.30;0.90;;;8.50;1.00;;;;;;5113234;27;20458;-73
2024/02/23 06:49:20;;;;;;;1.40;0.90;;;8.50;1.00;;;;;;5113238;27;20450;-73
2024/02/23 06:51:50;;;;;;;0.90;0.80;;;8.50;1.00;;;;;;5111454;27;20442;-74
2024/02/23 06:54:17;;;;;;;1.57;0.80;;;8.50;1.00;;;;;;5117955;27;20483;-75
2024/02/23 06:56:45;;;;;;;1.93;0.90;;;8.50;1.00;;;;;;5112435;27;20458;-72
2024/02/23 06:59:12;;;;;;;1.33;0.90;;;8.50;1.00;;;;;;5096141;27;20493;-73
2024/02/23 07:01:49;;;;;;;3.97;0.60;;;8.50;1.00;;;;;;5081826;28;20462;-71
2024/02/23 07:04:18;;;;;;;1.10;1.00;;;8.50;1.00;;;;;;5091874;27;21183;-75
2024/02/23 07:06:45;;;;;;;4.10;1.07;;;8.50;1.00;;;;;;5084098;28;20504;-74
2024/02/23 07:09:14;;;;;;;1.00;0.80;;;8.50;1.00;;;;;;5105041;27;20470;-75
2024/02/23 07:11:43;;;;;;;0.80;0.77;;;8.60;1.00;;;;;;5089316;27;20470;-77
2024/02/23 07:14:12;;;;;;;1.10;0.80;;;8.60;1.00;;;;;;5086071;28;21815;-72
2024/02/23 07:16:40;;;;;;;3.03;1.10;;;8.70;1.00;;;;;;5085701;28;20533;-71
2024/02/23 07:19:07;;;;;;;1.00;0.80;;;8.80;1.00;;;;;;5085154;28;20458;-72
2024/02/23 07:21:34;;;;;;;2.83;0.70;;;8.80;1.00;;;;;;5091464;27;20501;-72
2024/02/23 07:24:01;;;;;;;1.10;0.77;;;8.80;1.00;;;;;;5085722;28;20502;-73
2024/02/23 07:26:30;;;;;;;1.10;0.87;;;8.80;1.00;;;;;;5081238;28;21144;-73
2024/02/23 07:28:57;;;;;;;3.33;0.87;;;8.90;1.00;;;;;;5084951;28;21012;-72
2024/02/23 07:31:24;;;;;;;2.60;0.90;;;8.90;1.00;;;;;;5085960;28;20556;-73
2024/02/23 07:33:52;;;;;;;4.80;1.00;;;9.00;1.00;;;;;;5088289;28;20553;-76
2024/02/23 07:36:19;;;;;;;0.77;0.77;;;9.10;1.00;;;;;;5094901;27;20520;-77
2024/02/23 07:38:46;;;;;;;1.53;1.10;;;9.20;1.00;;;;;;5097787;27;21033;-77
2024/02/23 07:41:13;;;;;;;2.40;0.60;;;9.20;1.00;;;;;;5088240;28;20566;-80
2024/02/23 07:43:42;;;;;;;5.83;1.37;;;9.20;1.00;;;;;;5094820;27;20467;-72
2024/02/23 07:46:09;;;;;;;2.83;1.20;;;9.10;1.00;;;;;;5086977;27;20496;-74
2024/02/23 07:48:36;;;;;;;2.03;1.00;;;9.20;1.00;;;;;;5097541;27;20469;-75
2024/02/23 07:51:04;;;;;;;1.07;0.80;;;9.20;1.00;;;;;;5104540;27;20454;-75
2024/02/23 07:53:31;;;;;;;10.13;4.33;;;9.20;1.00;;;;;;5087007;27;20595;-74
2024/02/23 07:56:01;;;;;;;1.80;1.10;;;9.30;1.00;;;;;;5091178;27;20552;-76
2024/02/23 07:58:30;;;;;;;0.77;0.63;;;9.30;1.00;;;;;;5090963;28;20470;-75
2024/02/23 08:01:01;;;;;;;4.30;1.43;;;9.30;1.00;;;;;;5086158;28;20561;-76
2024/02/23 08:03:28;;;;;;;3.40;1.20;;;9.30;1.00;;;;;;5084917;28;20689;-74
2024/02/23 08:05:55;;;;;;;1.30;0.77;;;9.30;1.00;;;;;;5092582;27;20462;-75
2024/02/23 08:08:25;;;;;;;1.40;0.73;;;9.30;1.00;;;;;;5105055;27;21517;-73
2024/02/23 08:10:52;;;;;;;1.30;0.80;;;9.20;1.00;;;;;;5106151;27;20497;-75
2024/02/23 08:13:19;;;;;;;6.83;1.67;;;9.20;1.00;;;;;;5104986;27;20484;-75
2024/02/23 08:15:46;;;;;;;0.90;0.60;;;9.40;1.00;;;;;;5103932;27;20458;-75
2024/02/23 08:18:15;;;;;;;1.90;0.60;;;9.70;1.00;;;;;;5102333;27;20473;-75
2024/02/23 08:20:42;;;;;;;0.90;0.90;;;9.90;1.00;;;;;;5104499;27;20493;-76
2024/02/23 08:23:10;;;;;;;8.93;2.63;;;10.10;1.00;;;;;;5099159;27;20569;-76
2024/02/23 08:25:37;;;;;;;5.80;2.80;;;10.30;1.00;;;;;;5107510;27;20480;-74
2024/02/23 08:28:05;;;;;;;1.07;0.90;;;10.50;1.00;;;;;;5101037;27;20479;-77
2024/02/23 08:30:32;;;;;;;1.43;0.83;;;10.50;1.00;;;;;;5090505;27;21931;-74
2024/02/23 08:32:59;;;;;;;1.03;0.80;;;10.50;1.00;;;;;;5084341;28;20574;-75
2024/02/23 08:35:29;;;;;;;2.93;0.80;;;10.40;1.00;;;;;;5095771;27;21171;-77
2024/02/23 08:37:56;;;;;;;4.83;0.90;;;10.30;1.00;;;;;;5109083;27;20458;-76
2024/02/23 08:40:23;;;;;;;2.80;0.80;;;10.10;1.00;;;;;;5087320;27;20551;-76
2024/02/23 08:42:51;;;;;;;1.43;0.73;;;9.90;1.00;;;;;;5105109;27;20453;-80
2024/02/23 08:45:18;;;;;;;1.57;0.80;;;9.80;1.00;;;;;;5090794;27;20446;-74
2024/02/23 08:47:46;;;;;;;1.17;0.70;;;9.90;1.00;;;;;;5084471;28;21400;-75
2024/02/23 08:50:14;;;;;;;0.73;0.50;;;9.90;1.00;;;;;;5091968;27;20484;-75
2024/02/23 08:52:42;;;;;;;9.73;1.67;;;9.80;1.00;;;;;;5087714;28;20470;-74
2024/02/23 08:55:11;;;;;;;1.53;1.00;;;10.10;1.00;;;;;;5086861;27;20451;-74
2024/02/23 08:57:38;;;;;;;2.10;0.77;;;10.30;1.00;;;;;;5107934;27;20477;-73
2024/02/23 09:00:06;;;;;;;4.67;0.90;;;10.50;1.00;;;;;;5103381;27;20477;-77
2024/02/23 09:02:35;;;;;;;1.20;1.00;;;10.90;1.00;;;;;;5088781;28;20477;-74
2024/02/23 09:05:02;;;;;;;3.63;1.07;;;11.40;1.00;;;;;;5085283;28;20451;-75
2024/02/23 09:07:30;;;;;;;1.30;0.77;;;11.80;1.00;;;;;;5096785;27;20462;-77
2024/02/23 09:09:58;;;;;;;1.33;0.60;;;12.40;1.00;;;;;;5088352;28;20441;-72
2024/02/23 09:12:25;;;;;;;24.20;2.60;;;12.90;1.00;;;;;;5089454;28;20528;-75
2024/02/23 09:14:53;;;;;;;1.47;0.60;;;13.20;1.00;;;;;;5087415;28;20453;-75
2024/02/23 09:17:20;;;;;;;2.40;0.90;;;13.50;1.00;;;;;;5095659;27;20559;-74
2024/02/23 09:19:48;;;;;;;1.60;0.80;;;13.30;1.00;;;;;;5087743;28;20457;-75
2024/02/23 09:22:15;;;;;;;2.87;0.60;;;13.40;1.00;;;;;;5085203;28;20559;-77
2024/02/23 09:24:43;;;;;;;1.37;0.70;;;13.50;1.00;;;;;;5089820;28;20578;-76
2024/02/23 09:27:14;;;;;;;0.93;0.70;;;13.50;1.00;;;;;;5088834;28;21001;-73
2024/02/23 09:29:41;;;;;;;1.00;0.50;;;13.50;1.00;;;;;;5089553;27;20559;-73
2024/02/23 09:32:08;;;;;;;5.43;1.50;;;13.40;1.00;;;;;;5092728;27;20563;-72
2024/02/23 09:34:35;;;;;;;3.00;0.90;;;13.60;1.00;;;;;;5084184;28;20583;-73
2024/02/23 09:37:02;;;;;;;2.30;0.60;;;13.90;1.00;;;;;;5102347;27;21266;-74
2024/02/23 09:39:29;;;;;;;1.10;0.50;;;13.70;1.00;;;;;;5087525;27;20548;-73
2024/02/23 09:41:57;;;;;;;5.90;1.10;;;13.40;1.00;;;;;;5099704;27;20476;-71
2024/02/23 09:44:32;;;;;;;1.37;0.50;;;13.50;1.00;;;;;;5095692;27;20478;-75
2024/02/23 09:47:01;;;;;;;0.90;0.70;;;13.80;1.00;;;;;;5097721;27;20490;-75
2024/02/23 09:49:28;;;;;;;3.73;1.63;;;13.50;1.00;;;;;;5102359;27;20449;-75
2024/02/23 09:51:56;;;;;;;2.73;1.17;;;13.30;1.00;;;;;;5109051;27;20474;-75
2024/02/23 09:54:24;;;;;;;4.37;1.30;;;13.00;1.00;;;;;;5108291;27;21403;-73
2024/02/23 09:56:53;;;;;;;0.60;0.50;;;12.90;1.00;;;;;;5087731;28;20528;-73
2024/02/23 09:59:20;;;;;;;0.80;0.40;;;12.80;1.00;;;;;;5095265;27;20427;-75
2024/02/23 10:01:52;;;;;;;3.63;1.00;;;13.00;1.00;;;;;;5088916;28;20456;-74
2024/02/23 10:04:20;;;;;;;2.93;0.50;;;13.20;1.00;;;;;;5088549;27;20458;-73
2024/02/23 10:06:47;;;;;;;2.67;0.63;;;13.40;1.00;;;;;;5086013;28;21271;-74
2024/02/23 10:09:14;;;;;;;1.17;0.50;;;13.40;1.00;;;;;;5085671;28;20535;-71
2024/02/23 10:11:41;;;;;;;1.70;0.60;;;13.10;1.00;;;;;;5087003;28;20492;-74
2024/02/23 10:14:09;;;;;;;2.50;0.70;;;13.30;1.00;;;;;;5090049;27;20609;-72
2024/02/23 10:16:36;;;;;;;0.70;0.60;;;13.40;1.00;;;;;;5106758;27;20546;-72
2024/02/23 10:19:04;;;;;;;5.43;0.90;;;13.50;1.00;;;;;;5089843;28;21240;-74
2024/02/23 10:21:34;;;;;;;1.90;0.67;;;13.50;1.00;;;;;;5086575;28;20507;-74
2024/02/23 10:24:02;;;;;;;3.80;0.90;;;13.20;1.00;;;;;;5085287;28;20534;-74
2024/02/23 10:26:29;;;;;;;1.53;0.80;;;12.80;1.00;;;;;;5082967;28;20880;-76
2024/02/23 10:28:58;;;;;;;1.93;0.57;;;12.60;1.00;;;;;;5086328;28;20558;-74
2024/02/23 10:31:26;;;;;;;1.63;0.80;;;12.20;1.00;;;;;;5082959;28;20490;-73
2024/02/23 10:33:57;;;;;;;7.90;1.50;;;12.10;1.00;;;;;;5090874;27;20463;-76
2024/02/23 10:36:31;;;;;;;1.80;0.40;;;12.40;1.00;;;;;;5080956;28;20590;-77
2024/02/23 10:39:04;;;;;;;1.17;0.57;;;12.90;1.00;;;;;;5086683;28;20478;-76
2024/02/23 10:41:36;;;;;;;3.40;1.10;;;13.10;1.00;;;;;;5094920;27;20426;-78
2024/02/23 10:44:04;;;;;;;0.63;0.47;;;13.10;1.00;;;;;;5102516;27;20443;-79
2024/02/23 10:46:32;;;;;;;0.50;0.50;;;13.20;1.00;;;;;;5087713;27;20464;-78
2024/02/23 10:49:00;;;;;;;1.07;0.60;;;13.40;1.00;;;;;;5098587;27;21244;-76
2024/02/23 10:51:31;;;;;;;3.33;1.27;;;13.80;1.00;;;;;;5088644;28;20990;-76
2024/02/23 10:53:59;;;;;;;1.40;0.67;;;13.70;1.00;;;;;;5091741;28;21609;-76
2024/02/23 10:56:27;;;;;;;1.13;0.60;;;13.60;1.00;;;;;;5096735;27;20490;-77
2024/02/23 10:58:55;;;;;;;0.87;0.53;;;13.30;1.00;;;;;;5089293;27;21090;-75
2024/02/23 11:01:26;;;;;;;1.40;0.70;;;13.50;1.00;;;;;;5110813;27;22080;-76
2024/02/23 11:03:54;;;;;;;4.37;1.53;;;14.00;1.00;;;;;;5094306;27;20461;-76
2024/02/23 11:06:28;;;;;;;5.03;1.27;;;14.30;1.00;;;;;;5087091;28;20462;-78
2024/02/23 11:09:07;;;;;;;2.47;0.97;;;14.70;1.00;;;;;;5084088;28;20461;-76
2024/02/23 11:11:34;;;;;;;2.23;1.80;;;15.40;1.00;;;;;;5091939;27;20499;-77
2024/02/23 11:14:04;;;;;;;1.57;0.60;;;15.40;1.00;;;;;;5088912;27;20461;-77
2024/02/23 11:16:33;;;;;;;4.77;0.80;;;15.10;1.00;;;;;;5083309;27;21289;-78
2024/02/23 11:19:11;;;;;;;1.20;0.80;;;15.30;1.00;;;;;;5092397;27;20522;-78
2024/02/23 11:21:38;;;;;;;5.90;1.10;;;15.30;1.00;;;;;;5106286;27;20460;-79
2024/02/23 11:24:08;;;;;;;2.17;0.87;;;15.20;1.00;;;;;;5086336;27;20527;-76
2024/02/23 11:26:38;;;;;;;2.10;0.70;;;15.20;1.00;;;;;;5089682;27;21265;-77
2024/02/23 11:29:12;;;;;;;1.40;0.97;;;14.90;1.00;;;;;;5077916;28;20453;-77
2024/02/23 11:31:46;;;;;;;10.07;2.67;;;15.10;1.00;;;;;;5086238;28;20479;-78
2024/02/23 11:34:14;;;;;;;4.23;0.93;;;15.50;1.00;;;;;;5090442;28;20457;-81
2024/02/23 11:36:41;;;;;;;1.90;0.77;;;15.40;1.00;;;;;;5090224;28;20469;-80
2024/02/23 11:39:13;;;;;;;2.40;0.70;;;15.20;1.00;;;;;;5099068;27;20549;-81
2024/02/23 11:41:41;;;;;;;6.93;1.87;;;15.30;1.00;;;;;;5094634;27;20563;-78
2024/02/23 11:44:13;;;;;;;2.60;0.93;;;15.30;1.00;;;;;;5100080;27;20466;-76
2024/02/23 11:46:40;;;;;;;2.90;1.23;;;15.70;1.00;;;;;;5096746;27;20459;-76
2024/02/23 11:49:09;;;;;;;0.70;0.50;;;16.00;1.00;;;;;;5087724;28;20539;-78
2024/02/23 11:51:37;;;;;;;14.10;2.90;;;15.80;1.00;;;;;;5107725;27;20493;-75
2024/02/23 11:54:05;;;;;;;2.17;0.77;;;15.60;1.00;;;;;;5086997;28;20488;-75
2024/02/23 11:56:33;;;;;;;1.33;0.90;;;15.30;1.00;;;;;;5088443;28;20490;-80
2024/02/23 11:59:01;;;;;;;0.67;0.53;;;14.80;1.00;;;;;;5098855;27;21142;-75
2024/02/23 12:01:30;;;;;;;2.50;0.97;;;14.60;1.00;;;;;;5097110;27;20550;-75
2024/02/23 12:03:57;;;;;;;1.87;1.00;;;14.50;1.00;;;;;;5087271;28;20488;-75
2024/02/23 12:06:29;;;;;;;1.10;0.73;;;14.70;1.00;;;;;;5085829;28;20473;-78
2024/02/23 12:08:56;;;;;;;1.37;0.60;;;14.70;1.00;;;;;;5093697;27;20965;-76
2024/02/23 12:11:23;;;;;;;1.60;0.53;;;14.70;1.00;;;;;;5105900;27;20999;-75
2024/02/23 12:13:52;;;;;;;3.27;1.00;;;14.90;1.00;;;;;;5093572;27;20452;-74
2024/02/23 12:16:21;;;;;;;2.60;1.63;;;14.70;1.00;;;;;;5107833;27;22129;-74
2024/02/23 12:18:55;;;;;;;3.10;1.40;;;14.70;1.00;;;;;;5106876;27;20456;-76
2024/02/23 12:21:24;;;;;;;4.27;1.07;;;14.50;1.00;;;;;;5087120;27;20522;-75
2024/02/23 12:23:52;;;;;;;2.13;0.80;;;14.60;1.00;;;;;;5088071;28;20453;-75
2024/02/23 12:26:20;;;;;;;0.90;0.73;;;14.80;1.00;;;;;;5091024;27;20555;-76
2024/02/23 12:28:48;;;;;;;1.23;0.80;;;14.90;1.00;;;;;;5097710;27;20448;-76
2024/02/23 12:31:16;;;;;;;1.60;0.80;;;14.50;1.00;;;;;;5073873;28;20464;-75
2024/02/23 12:33:47;;;;;;;3.27;1.23;;;14.00;1.00;;;;;;5096245;27;20891;-75
2024/02/23 12:36:15;;;;;;;4.47;1.20;;;14.00;1.00;;;;;;5096619;27;21283;-74
2024/02/23 12:38:42;;;;;;;1.60;0.60;;;14.00;1.00;;;;;;5108109;27;20419;-75
2024/02/23 12:41:11;;;;;;;1.23;0.67;;;14.00;1.00;;;;;;5109518;27;20482;-76
2024/02/23 12:43:38;;;;;;;2.67;1.00;;;14.00;1.00;;;;;;5097724;27;21199;-75
2024/02/23 12:46:06;;;;;;;1.00;0.90;;;14.10;1.00;;;;;;5110968;27;20439;-75
2024/02/23 12:48:34;;;;;;;2.30;1.10;;;14.10;1.00;;;;;;5107745;27;20460;-76
2024/02/23 12:51:02;;;;;;;1.27;0.90;;;14.00;1.00;;;;;;5105507;27;20475;-74
2024/02/23 12:53:37;;;;;;;1.33;0.70;;;13.70;1.00;;;;;;5108000;27;20454;-76
2024/02/23 12:56:05;;;;;;;1.10;0.80;;;13.40;1.00;;;;;;5108787;27;20539;-77
2024/02/23 12:58:33;;;;;;;2.13;0.90;;;13.20;1.00;;;;;;5105919;27;20478;-71
2024/02/23 13:01:00;;;;;;;1.43;0.87;;;13.20;1.00;;;;;;5096424;28;21102;-72
2024/02/23 13:03:28;;;;;;;4.00;1.60;;;13.00;1.00;;;;;;5085641;28;21360;-75